Time;durP1;ratioP1;P1;durP2;ratioP2;P2;SDS_P1;SDS_P2;PMS_P1;PMS_P2;Temp;Humidity;BMP_temperature;BMP_pressure;BME280_temperature;BME280_humidity;BME280_pressure;Samples;Min_cycle;Max_cycle;Signal;HPM_P1;HPM_P2
2021/11/19 00:02:12;;;;;;;;;;;;;;;-142.75;100.00;78196.59;5027602;28;20029;-67
2021/11/19 00:04:38;;;;;;;24.50;11.30;;;;;;;-142.75;100.00;78192.66;5009426;28;19913;-67
2021/11/19 00:07:04;;;;;;;19.40;9.75;;;;;;;-142.75;100.00;78196.59;5009231;28;20083;-67
2021/11/19 00:09:29;;;;;;;;;;;;;;;-142.75;100.00;78200.53;5028347;28;20025;-67
2021/11/19 00:11:55;;;;;;;24.27;9.70;;;;;;;-142.75;100.00;78182.81;5026319;28;19917;-67
2021/11/19 00:14:22;;;;;;;21.40;9.30;;;;;;;-142.75;100.00;78192.66;5027131;28;20025;-67
2021/11/19 00:16:54;;;;;;;17.63;9.18;;;;;;;-142.75;100.00;78190.69;5027377;28;20032;-68
2021/11/19 00:19:21;;;;;;;22.00;9.13;;;;;;;-142.75;100.00;78188.72;5027089;28;20383;-67
2021/11/19 00:21:46;;;;;;;17.45;9.27;;;;;;;-142.75;100.00;78180.81;5026535;28;20646;-67
2021/11/19 00:24:12;;;;;;;19.25;9.27;;;;;;;-142.75;100.00;78184.78;5026800;28;20112;-68
2021/11/19 00:26:39;;;;;;;19.85;10.27;;;;;;;-142.75;100.00;78190.69;5025949;28;20021;-67
2021/11/19 00:29:05;;;;;;;22.55;9.57;;;;;;;-142.75;100.00;78184.78;5041930;28;20021;-67
2021/11/19 00:31:31;;;;;;;27.00;10.00;;;;;;;-142.75;100.00;78178.84;5045814;28;20021;-66
2021/11/19 00:33:56;;;;;;;16.08;9.77;;;;;;;-142.75;100.00;78180.81;5046412;28;20600;-66
2021/11/19 00:38:54;;;;;;;19.52;10.60;;;;;;;-142.75;100.00;78170.97;5054758;22;20529;-69
2021/11/19 00:41:20;;;;;;;19.50;10.25;;;;;;;-142.75;100.00;78204.47;5017262;28;20657;-70
2021/11/19 00:43:45;;;;;;;23.73;11.13;;;;;;;-142.75;100.00;78216.28;5041987;28;20112;-69
2021/11/19 00:46:12;;;;;;;22.08;12.52;;;;;;;-142.75;100.00;78235.97;5040790;28;20035;-69
2021/11/19 00:48:38;;;;;;;25.98;11.32;;;;;;;-142.75;100.00;78243.84;5025195;28;20036;-71
2021/11/19 00:51:08;;;;;;;20.90;11.10;;;;;;;-142.75;100.00;78235.97;5039840;28;20506;-68
2021/11/19 00:53:35;;;;;;;26.23;11.90;;;;;;;-142.75;100.00;78228.09;5044718;28;20037;-70
2021/11/19 00:56:01;;;;;;;24.95;12.13;;;;;;;-142.75;100.00;78226.13;5036656;28;20079;-70
2021/11/19 00:58:26;;;;;;;25.17;11.73;;;;;;;-142.75;100.00;78220.22;5030494;28;20457;-70
2021/11/19 01:00:58;;;;;;;28.55;12.60;;;;;;;-142.75;100.00;78230.06;5035458;28;20605;-71
2021/11/19 01:03:25;;;;;;;25.88;13.27;;;;;;;-142.75;100.00;78222.19;5040862;28;20030;-70
2021/11/19 01:05:51;;;;;;;23.90;12.10;;;;;;;-142.75;100.00;78232.03;5041791;28;20025;-69
2021/11/19 01:08:17;;;;;;;21.83;11.85;;;;;;;-142.75;100.00;78208.41;5034013;28;20034;-69
2021/11/19 01:10:43;;;;;;;;;;;;;;;-142.75;100.00;78208.41;5044514;28;20107;-69
2021/11/19 01:13:09;;;;;;;25.50;11.93;;;;;;;-142.75;100.00;78210.38;5020955;28;20074;-70
2021/11/19 01:15:40;;;;;;;24.05;12.10;;;;;;;-142.75;100.00;78210.38;5033605;28;20029;-70
2021/11/19 01:18:36;;;;;;;26.80;12.40;;;;;;;-142.75;100.00;78204.47;5014815;28;20021;-70
2021/11/19 01:21:06;;;;;;;25.92;12.20;;;;;;;-142.75;100.00;78196.59;5037437;28;20056;-69
2021/11/19 01:23:34;;;;;;;24.17;11.85;;;;;;;-142.75;100.00;78190.69;5014913;28;20029;-68
2021/11/19 01:26:08;;;;;;;27.08;12.30;;;;;;;-142.75;100.00;78212.34;5016314;28;20028;-69
2021/11/19 01:28:34;;;;;;;21.60;11.68;;;;;;;-142.75;100.00;78220.22;5029477;28;20087;-69
2021/11/19 01:31:02;;;;;;;;;;;;;;;-142.75;100.00;78206.44;5035908;28;20544;-70
2021/11/19 01:33:28;;;;;;;22.10;11.27;;;;;;;-142.75;100.00;78212.34;5035172;28;20317;-70
2021/11/19 01:35:53;;;;;;;24.80;11.75;;;;;;;-142.75;100.00;78198.56;5034470;28;20025;-71
2021/11/19 01:38:20;;;;;;;27.58;12.80;;;;;;;-142.75;100.00;78188.72;5031414;28;20025;-69
2021/11/19 01:41:02;;;;;;;23.15;11.65;;;;;;;-142.75;100.00;78194.63;5032507;28;20143;-71
2021/11/19 01:43:29;;;;;;;25.50;11.77;;;;;;;-142.75;100.00;78194.63;5033333;28;20506;-70
2021/11/19 01:45:57;;;;;;;19.63;11.40;;;;;;;-142.75;100.00;78186.75;5036016;28;20032;-69
2021/11/19 01:48:27;;;;;;;19.83;11.02;;;;;;;-142.75;100.00;78190.69;5034356;28;20409;-69
2021/11/19 01:51:04;;;;;;;21.60;11.40;;;;;;;-142.75;100.00;78186.75;5018073;28;20024;-70
2021/11/19 01:53:38;;;;;;;25.60;12.52;;;;;;;-142.75;100.00;78190.69;5034412;28;20026;-70
2021/11/19 01:56:09;;;;;;;23.80;12.55;;;;;;;-142.75;100.00;78204.47;5037175;28;20025;-70
2021/11/19 01:58:45;;;;;;;22.25;12.40;;;;;;;-142.75;100.00;78216.28;5021527;28;20028;-70
2021/11/19 02:01:15;;;;;;;24.52;12.68;;;;;;;-142.75;100.00;78212.34;5023854;28;20520;-69
2021/11/19 02:03:43;;;;;;;21.05;12.52;;;;;;;-142.75;100.00;78200.53;5025379;28;20024;-69
2021/11/19 02:06:19;;;;;;;25.08;12.48;;;;;;;-142.75;100.00;78208.41;5015744;28;20465;-70
2021/11/19 02:08:46;;;;;;;23.25;12.93;;;;;;;-142.75;100.00;78196.59;5040950;28;20433;-70
2021/11/19 02:11:35;;;;;;;19.83;12.38;;;;;;;-142.75;100.00;78206.44;5043646;28;20479;-69
2021/11/19 02:14:00;;;;;;;28.92;13.90;;;;;;;-142.75;100.00;78212.34;5018449;28;20061;-69
2021/11/19 02:16:45;;;;;;;22.20;13.47;;;;;;;-142.75;100.00;78208.41;5038908;28;20098;-70
2021/11/19 02:19:23;;;;;;;23.08;14.25;;;;;;;-142.75;100.00;78198.56;5021794;28;20722;-70
2021/11/19 02:22:00;;;;;;;30.10;13.70;;;;;;;-142.75;100.00;78210.38;5045138;28;20037;-71
2021/11/19 02:24:30;;;;;;;25.13;14.10;;;;;;;-142.75;100.00;78196.59;5035933;28;20021;-70
2021/11/19 02:27:05;;;;;;;25.17;14.02;;;;;;;-142.75;100.00;78206.44;5012815;28;20028;-71
2021/11/19 02:29:38;;;;;;;28.65;14.45;;;;;;;-142.75;100.00;78220.22;5038800;28;20079;-68
2021/11/19 02:32:13;;;;;;;25.70;14.43;;;;;;;-142.75;100.00;78216.28;5023010;28;20033;-69
2021/11/19 02:34:39;;;;;;;26.85;15.00;;;;;;;-142.75;100.00;78206.44;5019647;28;20021;-70
2021/11/19 02:37:08;;;;;;;26.27;14.80;;;;;;;-142.75;100.00;78204.47;5022863;28;20029;-70
2021/11/19 02:39:56;;;;;;;25.77;14.95;;;;;;;-142.75;100.00;78200.53;5024070;28;20083;-71
2021/11/19 02:42:33;;;;;;;25.75;14.48;;;;;;;-142.75;100.00;78192.66;5032354;28;20021;-69
2021/11/19 02:45:00;;;;;;;;;;;;;;;-142.75;100.00;78170.97;5037840;28;20561;-70
2021/11/19 02:47:28;;;;;;;27.25;14.27;;;;;;;-142.75;100.00;78157.19;5037868;28;20007;-68
2021/11/19 02:49:54;;;;;;;23.08;14.07;;;;;;;-142.75;100.00;78157.19;5043078;28;20020;-70
2021/11/19 02:52:27;;;;;;;29.83;14.57;;;;;;;-142.75;100.00;78170.97;5036356;28;20116;-68
2021/11/19 02:54:53;;;;;;;30.80;15.45;;;;;;;-142.75;100.00;78180.81;5042441;28;20047;-69
2021/11/19 02:57:20;;;;;;;28.38;13.88;;;;;;;-142.75;100.00;78167.03;5038498;28;20037;-70
2021/11/19 02:59:46;;;;;;;25.02;13.85;;;;;;;-142.75;100.00;78169.00;5022486;28;20047;-70
2021/11/19 03:02:15;;;;;;;34.22;15.02;;;;;;;-142.75;100.00;78149.31;5042306;28;20017;-69
2021/11/19 03:04:48;;;;;;;29.38;14.80;;;;;;;-142.75;100.00;78153.25;5032481;28;20033;-70
2021/11/19 03:07:15;;;;;;;25.60;14.18;;;;;;;-142.75;100.00;78163.09;5036920;28;20028;-70
2021/11/19 03:09:44;;;;;;;24.27;14.05;;;;;;;-142.75;100.00;78165.06;5018983;28;20056;-70
2021/11/19 03:12:12;;;;;;;27.73;14.75;;;;;;;-142.75;100.00;78149.31;5021959;28;20028;-70
2021/11/19 03:14:38;;;;;;;25.33;14.18;;;;;;;-142.75;100.00;78147.34;5032707;28;20025;-69
2021/11/19 03:17:10;;;;;;;29.05;13.50;;;;;;;-142.75;100.00;78149.31;5016725;28;20051;-70
2021/11/19 03:19:37;;;;;;;24.13;13.55;;;;;;;-142.75;100.00;78145.38;5019919;28;20029;-70
2021/11/19 03:22:04;;;;;;;22.55;13.18;;;;;;;-142.75;100.00;78133.56;5016801;28;20013;-70
2021/11/19 03:24:30;;;;;;;29.05;13.90;;;;;;;-142.75;100.00;78135.53;5018329;28;20029;-70
2021/11/19 03:26:56;;;;;;;24.45;13.15;;;;;;;-142.75;100.00;78127.66;5042693;28;20022;-71
2021/11/19 03:29:22;;;;;;;26.50;12.68;;;;;;;-142.75;100.00;78139.47;5036058;28;20411;-68
2021/11/19 03:31:50;;;;;;;27.15;13.93;;;;;;;-142.75;100.00;78155.22;5036906;28;20094;-70
2021/11/19 03:34:16;;;;;;;27.50;13.15;;;;;;;-142.75;100.00;78161.13;5036398;28;20040;-70
2021/11/19 03:36:44;;;;;;;;;;;;;;;-142.75;100.00;78172.94;5021538;28;20035;-69
2021/11/19 03:39:10;;;;;;;26.17;13.98;;;;;;;-142.75;100.00;78161.13;5036151;28;19970;-70
2021/11/19 03:41:37;;;;;;;25.20;14.38;;;;;;;-142.75;100.00;78180.81;5041174;28;20036;-70
2021/11/19 03:44:11;;;;;;;30.27;13.73;;;;;;;-142.75;100.00;78165.06;5041259;28;20033;-70
2021/11/19 03:46:50;;;;;;;22.77;13.05;;;;;;;-142.75;100.00;78157.19;5015806;28;20082;-71
2021/11/19 03:49:17;;;;;;;23.63;13.60;;;;;;;-142.75;100.00;78165.06;5036781;28;20033;-70
2021/11/19 03:51:50;;;;;;;27.42;13.13;;;;;;;-142.75;100.00;78165.06;5043152;28;20125;-68
2021/11/19 03:54:17;;;;;;;26.23;13.77;;;;;;;-142.75;100.00;78180.81;5038779;28;20044;-72
2021/11/19 03:56:43;;;;;;;23.67;13.02;;;;;;;-142.75;100.00;78180.81;5036897;28;20028;-70
2021/11/19 03:59:10;;;;;;;27.08;12.68;;;;;;;-142.75;100.00;78163.09;5033097;28;20037;-70
2021/11/19 04:01:40;;;;;;;19.27;12.18;;;;;;;-142.75;100.00;78153.25;5036370;28;20052;-71
2021/11/19 04:04:07;;;;;;;31.15;12.70;;;;;;;-142.75;100.00;78165.06;5037932;28;20123;-70
2021/11/19 04:06:33;;;;;;;21.40;11.13;;;;;;;-142.75;100.00;78151.28;5033215;28;20479;-70
2021/11/19 04:08:58;;;;;;;23.77;11.05;;;;;;;-142.75;100.00;78151.28;5030431;28;20075;-70
2021/11/19 04:11:25;;;;;;;;;;;;;;;-142.75;100.00;78137.50;5038480;28;20060;-70
2021/11/19 04:13:50;;;;;;;21.65;10.38;;;;;;;-142.75;100.00;78161.13;5046160;28;19919;-68
2021/11/19 04:16:22;;;;;;;18.60;10.55;;;;;;;-142.75;100.00;78139.47;5036924;28;20479;-70
2021/11/19 04:18:47;;;;;;;19.60;10.23;;;;;;;-142.75;100.00;78143.41;5042560;28;20051;-69
2021/11/19 04:21:15;;;;;;;24.50;10.57;;;;;;;-142.75;100.00;78137.50;5039069;28;20032;-69
2021/11/19 04:23:40;;;;;;;26.38;10.52;;;;;;;-142.75;100.00;78129.63;5043795;28;20482;-68
2021/11/19 04:26:08;;;;;;;20.95;9.30;;;;;;;-142.75;100.00;78149.31;5038360;28;20063;-70
2021/11/19 04:28:34;;;;;;;21.70;9.98;;;;;;;-142.75;100.00;78159.16;5039893;28;20030;-69
2021/11/19 04:31:00;;;;;;;17.92;10.10;;;;;;;-142.75;100.00;78143.41;5045719;28;20108;-70
2021/11/19 04:33:27;;;;;;;18.80;9.73;;;;;;;-142.75;100.00;78141.44;5047657;28;20036;-68
2021/11/19 04:35:53;;;;;;;24.52;9.20;;;;;;;-142.75;100.00;78137.50;5042820;28;20479;-70
2021/11/19 04:38:21;;;;;;;18.90;9.82;;;;;;;-142.75;100.00;78149.31;5043759;28;20112;-70
2021/11/19 04:40:47;;;;;;;16.38;8.82;;;;;;;-142.75;100.00;78137.50;5036707;28;20029;-68
2021/11/19 04:43:13;;;;;;;18.05;8.93;;;;;;;-142.75;100.00;78139.47;5040697;28;20502;-70
2021/11/19 04:45:40;;;;;;;15.55;9.02;;;;;;;-142.75;100.00;78133.56;5036389;28;20034;-68
2021/11/19 04:48:06;;;;;;;15.23;7.82;;;;;;;-142.75;100.00;78143.41;5041867;28;20037;-70
2021/11/19 04:50:36;;;;;;;16.83;9.45;;;;;;;-142.75;100.00;78135.53;5038167;28;20458;-70
2021/11/19 04:53:02;;;;;;;20.77;8.65;;;;;;;-142.75;100.00;78143.41;5036217;28;20022;-70
2021/11/19 04:55:29;;;;;;;17.83;8.77;;;;;;;-142.75;100.00;78139.47;5023887;28;20021;-70
2021/11/19 04:57:55;;;;;;;22.17;9.80;;;;;;;-142.75;100.00;78145.38;5042106;28;20079;-70
2021/11/19 05:00:36;;;;;;;18.75;8.73;;;;;;;-142.75;100.00;78139.47;5038906;28;20494;-68
2021/11/19 05:03:02;;;;;;;19.17;9.00;;;;;;;-142.75;100.00;78137.50;5038266;28;20028;-69
2021/11/19 05:05:28;;;;;;;;;;;;;;;-142.75;100.00;78135.53;5043640;28;20032;-70
2021/11/19 05:07:54;;;;;;;15.45;7.95;;;;;;;-142.75;100.00;78127.66;5044806;28;19919;-70
2021/11/19 05:10:19;;;;;;;17.70;8.35;;;;;;;-142.75;100.00;78133.56;5021156;28;20029;-72
2021/11/19 05:12:48;;;;;;;17.40;9.13;;;;;;;-142.75;100.00;78133.56;5018629;28;20154;-71
2021/11/19 05:15:14;;;;;;;17.60;8.20;;;;;;;-142.75;100.00;78133.56;5036272;28;20510;-70
2021/11/19 05:17:40;;;;;;;13.98;7.63;;;;;;;-142.75;100.00;78137.50;5035725;28;20025;-73
2021/11/19 05:20:10;;;;;;;23.48;8.60;;;;;;;-142.75;100.00;78135.53;5043387;28;20036;-69
2021/11/19 05:22:36;;;;;;;19.20;8.10;;;;;;;-142.75;100.00;78129.63;5042415;28;20422;-71
2021/11/19 05:25:05;;;;;;;16.38;7.90;;;;;;;-142.75;100.00;78121.75;5027359;28;20025;-68
2021/11/19 05:27:30;;;;;;;13.60;8.18;;;;;;;-142.75;100.00;78117.81;5042253;28;20025;-70
2021/11/19 05:29:55;;;;;;;16.33;7.38;;;;;;;-142.75;100.00;78117.81;5039649;28;20508;-70
2021/11/19 05:32:21;;;;;;;20.77;7.65;;;;;;;-142.75;100.00;78127.66;5040902;28;21977;-69
2021/11/19 05:34:47;;;;;;;19.00;8.07;;;;;;;-142.75;100.00;78129.63;5037128;28;20490;-68
2021/11/19 05:37:12;;;;;;;16.10;7.63;;;;;;;-142.75;100.00;78123.72;5032981;28;20036;-70
2021/11/19 05:39:37;;;;;;;;;;;;;;;-142.75;100.00;78149.31;5035766;28;20028;-68
2021/11/19 05:42:05;;;;;;;18.23;6.97;;;;;;;-142.75;100.00;78155.22;5050661;28;19913;-69
2021/11/19 05:44:32;;;;;;;17.50;6.90;;;;;;;-142.75;100.00;78155.22;5022294;28;20029;-70
2021/11/19 05:46:59;;;;;;;19.80;7.78;;;;;;;-142.75;100.00;78159.16;5045538;28;20029;-69
2021/11/19 05:49:24;;;;;;;18.23;7.53;;;;;;;-142.75;100.00;78155.22;5030607;28;20029;-70
2021/11/19 05:51:53;;;;;;;19.50;7.05;;;;;;;-142.75;100.00;78151.28;5035142;28;20025;-70
2021/11/19 05:54:21;;;;;;;20.17;7.72;;;;;;;-142.75;100.00;78147.34;5050102;28;20064;-69
2021/11/19 05:56:48;;;;;;;14.13;6.95;;;;;;;-142.75;100.00;78153.25;5015533;28;20523;-70
2021/11/19 05:59:14;;;;;;;19.70;7.57;;;;;;;-142.75;100.00;78145.38;5042790;28;20070;-70
2021/11/19 06:01:39;;;;;;;14.80;6.20;;;;;;;-142.75;100.00;78153.25;5019206;28;20025;-69
2021/11/19 06:04:05;;;;;;;20.77;7.28;;;;;;;-142.75;100.00;78161.13;5021879;28;20079;-69
2021/11/19 06:06:30;;;;;;;18.77;6.68;;;;;;;-142.75;100.00;78161.13;5037417;28;20378;-68
2021/11/19 06:08:57;;;;;;;19.35;7.18;;;;;;;-142.75;100.00;78151.28;5041522;28;20029;-69
2021/11/19 06:11:30;;;;;;;12.63;6.95;;;;;;;-142.75;100.00;78153.25;5017894;28;20029;-69
2021/11/19 06:14:05;;;;;;;17.80;6.97;;;;;;;-142.75;100.00;78149.31;5035153;28;20506;-69
2021/11/19 06:16:53;;;;;;;16.17;6.75;;;;;;;-142.75;100.00;78155.22;5037727;28;20025;-69
2021/11/19 06:19:22;;;;;;;11.57;6.50;;;;;;;-142.75;100.00;78155.22;5044647;28;20029;-69
2021/11/19 06:22:06;;;;;;;15.63;6.13;;;;;;;-142.75;100.00;78145.38;5037695;28;20021;-69
2021/11/19 06:24:46;;;;;;;16.10;7.50;;;;;;;-142.75;100.00;78157.19;5013729;28;20045;-69
2021/11/19 06:27:15;;;;;;;14.40;6.50;;;;;;;-142.75;100.00;78161.13;5041578;28;20059;-69
2021/11/19 06:29:41;;;;;;;17.45;6.80;;;;;;;-142.75;100.00;78159.16;5041512;28;20039;-70
2021/11/19 06:32:08;;;;;;;14.60;6.45;;;;;;;-142.75;100.00;78157.19;5025584;28;20029;-70
2021/11/19 06:34:33;;;;;;;17.83;6.78;;;;;;;-142.75;100.00;78161.13;5035533;28;20075;-69
2021/11/19 06:36:58;;;;;;;14.05;6.43;;;;;;;-142.75;100.00;78161.13;5065907;22;20482;-67
2021/11/19 06:39:25;;;;;;;16.23;6.28;;;;;;;-142.75;100.00;78163.09;5012924;28;20048;-66
2021/11/19 06:41:51;;;;;;;15.95;6.47;;;;;;;-142.75;100.00;78174.91;5012450;28;20037;-66
2021/11/19 06:44:16;;;;;;;;;;;;;;;-142.75;100.00;78169.00;5031023;28;20552;-67
2021/11/19 06:46:42;;;;;;;16.63;6.57;;;;;;;-142.75;100.00;78167.03;5012514;28;19925;-67
2021/11/19 06:49:08;;;;;;;;;;;;;;;-142.75;100.00;78165.06;5030536;28;20028;-67
2021/11/19 06:51:34;;;;;;;12.07;5.95;;;;;;;-142.75;100.00;78169.00;5029337;28;19913;-66
2021/11/19 06:54:00;;;;;;;16.98;6.45;;;;;;;-142.75;100.00;78184.78;5030145;28;20121;-67
2021/11/19 06:56:25;;;;;;;17.45;6.40;;;;;;;-142.75;100.00;78176.88;5030406;28;20092;-66
2021/11/19 06:58:50;;;;;;;11.85;5.60;;;;;;;-142.75;100.00;78163.09;5030104;28;20018;-66
2021/11/19 07:01:17;;;;;;;11.57;5.85;;;;;;;-142.75;100.00;78176.88;5027461;28;20406;-67
2021/11/19 07:03:44;;;;;;;15.68;6.13;;;;;;;-142.75;100.00;78176.88;5030695;28;20029;-66
2021/11/19 07:06:09;;;;;;;12.85;5.55;;;;;;;-142.75;100.00;78172.94;5030303;28;20476;-66
2021/11/19 07:08:35;;;;;;;15.65;5.55;;;;;;;-142.75;100.00;78170.97;5029671;28;20025;-66
2021/11/19 07:11:06;;;;;;;12.77;6.05;;;;;;;-142.75;100.00;78167.03;5029443;28;20030;-66
2021/11/19 07:13:31;;;;;;;14.50;5.38;;;;;;;-142.75;100.00;78174.91;5029663;28;20025;-67
2021/11/19 07:15:57;;;;;;;14.85;5.40;;;;;;;-142.75;100.00;78178.84;5029667;28;20113;-66
2021/11/19 07:18:23;;;;;;;13.35;5.97;;;;;;;-142.75;100.00;78182.81;5029907;28;20442;-66
2021/11/19 07:20:50;;;;;;;;;;;;;;;-142.75;100.00;78184.78;5029125;28;20029;-66
2021/11/19 07:23:16;;;;;;;12.85;5.35;;;;;;;-142.75;100.00;78184.78;5029952;28;20352;-67
2021/11/19 07:25:41;;;;;;;;;;;;;;;-142.75;100.00;78200.53;5029821;28;20029;-67
2021/11/19 07:28:10;;;;;;;12.27;5.35;;;;;;;-142.75;100.00;78200.53;5027820;28;19923;-67
2021/11/19 07:30:53;;;;;;;12.73;5.40;;;;;;;-142.75;100.00;78192.66;5028694;28;20025;-66
2021/11/19 07:33:20;;;;;;;12.52;5.00;;;;;;;-142.75;100.00;78192.66;5011642;28;20025;-66
2021/11/19 07:35:46;;;;;;;19.33;5.32;;;;;;;-142.75;100.00;78206.44;5029617;28;20128;-67
2021/11/19 07:38:13;;;;;;;12.43;5.43;;;;;;;-142.75;100.00;78216.28;5029130;28;20032;-67
2021/11/19 07:40:39;;;;;;;;;;;;;;;-142.75;100.00;78218.25;5028851;28;20029;-67
2021/11/19 07:43:04;;;;;;;14.00;5.43;;;;;;;-142.75;100.00;78216.28;5029366;28;19999;-67
2021/11/19 07:45:35;;;;;;;16.02;5.68;;;;;;;-142.75;100.00;78222.19;5029164;28;20021;-66
2021/11/19 07:48:06;;;;;;;17.98;5.88;;;;;;;-142.75;100.00;78216.28;5023594;28;20450;-67
2021/11/19 07:50:32;;;;;;;14.82;5.22;;;;;;;-142.75;100.00;78218.25;4990861;28;20025;-67
2021/11/19 07:52:57;;;;;;;13.32;5.10;;;;;;;-142.75;100.00;78226.13;5008210;28;20072;-66
2021/11/19 07:55:23;;;;;;;10.65;4.50;;;;;;;-142.75;100.00;78232.03;5009480;28;20037;-67
2021/11/19 07:57:49;;;;;;;;;;;;;;;-142.75;100.00;78224.16;5009716;28;20056;-66
2021/11/19 08:00:21;;;;;;;17.02;4.43;;;;;;;-142.75;100.00;78224.16;4990832;28;19952;-67
2021/11/19 08:02:46;;;;;;;14.82;4.75;;;;;;;-142.75;100.00;78218.25;5009675;28;20218;-66
2021/11/19 08:05:12;;;;;;;18.55;5.07;;;;;;;-142.75;100.00;78220.22;5007427;28;20033;-66
2021/11/19 08:07:37;;;;;;;11.20;4.40;;;;;;;-142.75;100.00;78200.53;5008399;28;20041;-66
2021/11/19 08:10:04;;;;;;;;;;;;;;;-142.75;100.00;78212.34;5008044;28;20454;-67
2021/11/19 08:12:29;;;;;;;15.65;4.03;;;;;;;-142.75;100.00;78198.56;5008465;28;19918;-66
2021/11/19 08:14:55;;;;;;;12.32;4.20;;;;;;;-142.75;100.00;78200.53;5007198;28;20038;-67
2021/11/19 08:17:41;;;;;;;20.80;5.28;;;;;;;-142.75;100.00;78200.53;5008186;28;20065;-66
2021/11/19 08:20:10;;;;;;;11.13;3.65;;;;;;;-142.75;100.00;78208.41;5007289;28;20072;-66
2021/11/19 08:22:36;;;;;;;14.90;3.95;;;;;;;-142.75;100.00;78196.59;5008318;28;20028;-67
2021/11/19 08:25:03;;;;;;;15.30;4.25;;;;;;;-142.75;100.00;78190.69;5008290;28;20026;-68
2021/11/19 08:27:32;;;;;;;15.48;4.07;;;;;;;-142.75;100.00;78176.88;5008018;28;20042;-66
2021/11/19 08:29:59;;;;;;;14.98;3.80;;;;;;;-142.75;100.00;78155.22;5007481;28;20030;-66
2021/11/19 08:32:26;;;;;;;24.05;3.80;;;;;;;-142.75;100.00;78165.06;4990529;28;20022;-67
2021/11/19 08:34:54;;;;;;;13.45;3.90;;;;;;;-142.75;100.00;78165.06;5008154;28;20042;-67
2021/11/19 08:37:22;;;;;;;15.02;3.72;;;;;;;-142.75;100.00;78176.88;5008338;28;20096;-66
2021/11/19 08:39:48;;;;;;;13.02;3.42;;;;;;;-142.75;100.00;78178.84;5007721;28;20133;-68
2021/11/19 08:42:14;;;;;;;12.18;3.63;;;;;;;-142.75;100.00;78170.97;5008218;28;20038;-66
2021/11/19 08:44:41;;;;;;;;;;;;;;;-142.75;100.00;78163.09;4990935;28;20707;-66
2021/11/19 08:47:08;;;;;;;12.82;3.75;;;;;;;-142.75;100.00;78153.25;4990518;28;19917;-66
2021/11/19 08:49:35;;;;;;;11.55;3.55;;;;;;;-142.75;100.00;78153.25;5007935;28;20555;-66
2021/11/19 08:52:04;;;;;;;15.85;4.15;;;;;;;-142.75;100.00;78163.09;5006914;28;20380;-67
2021/11/19 08:54:29;;;;;;;12.80;3.58;;;;;;;-142.75;100.00;78157.19;5007950;28;20061;-66
2021/11/19 08:56:59;;;;;;;13.00;3.60;;;;;;;-142.75;100.00;78176.88;5007994;28;20116;-66
2021/11/19 08:59:26;;;;;;;11.63;3.28;;;;;;;-142.75;100.00;78172.94;4993154;28;20076;-66
2021/11/19 09:01:54;;;;;;;11.63;3.88;;;;;;;-142.75;100.00;78153.25;5008993;28;20026;-66
2021/11/19 09:04:21;;;;;;;10.27;3.63;;;;;;;-142.75;100.00;78141.44;5011208;28;20033;-68
2021/11/19 09:06:47;;;;;;;12.65;3.80;;;;;;;-142.75;100.00;78137.50;5011650;28;20029;-66
2021/11/19 09:09:12;;;;;;;;;;;;;;;-142.75;100.00;78129.63;5011817;28;20483;-66
2021/11/19 09:11:39;;;;;;;14.52;4.05;;;;;;;-142.75;100.00;78137.50;5010682;28;19921;-66
2021/11/19 09:14:05;;;;;;;10.02;3.90;;;;;;;-142.75;100.00;78125.69;5011318;28;20636;-66
2021/11/19 09:16:38;;;;;;;13.15;4.35;;;;;;;-142.75;100.00;78096.16;4992709;28;20483;-67
2021/11/19 09:19:30;;;;;;;10.15;3.90;;;;;;;-142.75;100.00;78078.44;5010947;28;20553;-66
2021/11/19 09:22:19;;;;;;;12.93;4.40;;;;;;;-142.75;100.00;78066.63;4992712;28;20017;-67
2021/11/19 09:24:44;;;;;;;11.90;4.18;;;;;;;-142.75;100.00;78046.91;5010967;28;20038;-66
2021/11/19 09:27:14;;;;;;;8.90;3.55;;;;;;;-142.75;100.00;78058.72;5011167;28;20029;-66
2021/11/19 09:29:47;;;;;;;9.95;4.25;;;;;;;-142.75;100.00;78076.47;4992570;28;20280;-67
2021/11/19 09:32:13;;;;;;;12.40;4.50;;;;;;;-142.75;100.00;78084.34;4991520;28;20048;-66
2021/11/19 09:34:42;;;;;;;8.40;3.10;;;;;;;-142.75;100.00;78076.47;4993252;28;20036;-66
2021/11/19 09:37:11;;;;;;;9.93;2.97;;;;;;;-142.75;100.00;78062.69;4993041;28;20025;-67
2021/11/19 09:39:37;;;;;;;11.75;3.90;;;;;;;-142.75;100.00;78015.41;5010668;28;20514;-66
2021/11/19 09:42:31;;;;;;;9.65;3.83;;;;;;;-142.75;100.00;77966.19;4992678;28;20030;-67
2021/11/19 09:45:11;;;;;;;10.95;3.60;;;;;;;-142.75;100.00;77871.66;5010593;28;20513;-67
2021/11/19 09:47:52;;;;;;;8.63;3.58;;;;;;;-142.75;100.00;77818.50;5010504;28;20037;-66
2021/11/19 09:50:38;;;;;;;11.48;2.75;;;;;;;-142.75;100.00;77814.56;5010015;28;20075;-67
2021/11/19 09:53:34;;;;;;;9.57;3.08;;;;;;;-142.75;100.00;77779.13;5010693;28;20468;-67
2021/11/19 09:56:28;;;;;;;10.00;3.38;;;;;;;-142.75;100.00;77739.75;5010501;28;20033;-67
2021/11/19 09:59:15;;;;;;;9.07;2.65;;;;;;;-142.75;100.00;77706.25;5010323;28;20403;-67
2021/11/19 10:01:49;;;;;;;9.02;2.60;;;;;;;-142.75;100.00;77712.16;5010025;28;20462;-67
2021/11/19 10:04:17;;;;;;;11.00;2.63;;;;;;;-142.75;100.00;77749.59;5010439;28;20025;-67
2021/11/19 10:07:07;;;;;;;7.18;2.22;;;;;;;-142.75;100.00;77783.06;5010286;28;20029;-67
2021/11/19 10:09:42;;;;;;;7.60;2.20;;;;;;;-142.75;100.00;77806.69;5009184;28;20034;-66
2021/11/19 10:12:19;;;;;;;6.53;2.40;;;;;;;-142.75;100.00;77828.34;5009994;28;20112;-67
2021/11/19 10:15:03;;;;;;;10.38;2.42;;;;;;;-142.75;100.00;77816.53;4992815;28;20040;-66
2021/11/19 10:17:51;;;;;;;8.63;2.78;;;;;;;-142.75;100.00;77816.53;5009967;28;20033;-67
2021/11/19 10:20:21;;;;;;;9.23;3.25;;;;;;;-142.75;100.00;77832.28;5009346;28;20057;-67
2021/11/19 10:22:56;;;;;;;8.30;2.53;;;;;;;-142.75;100.00;77812.59;5010196;28;20064;-67
2021/11/19 10:25:47;;;;;;;7.97;2.67;;;;;;;-142.75;100.00;77818.50;5009947;28;20032;-67
2021/11/19 10:28:23;;;;;;;7.15;3.00;;;;;;;-142.75;100.00;77826.38;5009918;28;20033;-66
2021/11/19 10:30:52;;;;;;;10.25;3.13;;;;;;;-142.75;100.00;77800.78;5009217;28;20042;-67
2021/11/19 10:33:24;;;;;;;7.88;3.00;;;;;;;-142.75;100.00;77818.50;5009803;28;20435;-67
2021/11/19 10:35:53;;;;;;;14.43;3.45;;;;;;;-142.75;100.00;77826.38;4992189;28;20041;-67
2021/11/19 10:38:55;;;;;;;9.77;3.50;;;;;;;-142.75;100.00;77851.97;5009859;28;20041;-67
2021/11/19 10:41:39;;;;;;;9.82;2.97;;;;;;;-142.75;100.00;77846.06;5009038;28;20044;-67
2021/11/19 10:44:18;;;;;;;9.95;2.60;;;;;;;-142.75;100.00;77826.38;4991960;28;20045;-67
2021/11/19 10:46:57;;;;;;;9.60;3.03;;;;;;;-142.75;100.00;77806.69;5009374;28;20045;-67
2021/11/19 10:49:51;;;;;;;8.13;2.58;;;;;;;-142.75;100.00;77773.22;5009125;28;20040;-67
2021/11/19 10:52:52;;;;;;;6.60;2.25;;;;;;;-142.75;99.61;77743.69;4991883;28;20066;-67
2021/11/19 10:55:57;;;;;;;4.35;1.92;;;;;;;-142.75;98.22;77779.13;5009749;28;20064;-67
2021/11/19 10:58:50;;;;;;;8.10;2.05;;;;;;;-142.75;99.53;77790.94;4991905;28;20045;-67
2021/11/19 11:01:45;;;;;;;5.80;1.70;;;;;;;-142.75;98.44;77708.22;5008928;28;20029;-67
2021/11/19 11:04:29;;;;;;;7.50;1.63;;;;;;;-142.75;96.23;77666.88;5008970;28;20516;-67
2021/11/19 11:07:17;;;;;;;5.35;1.73;;;;;;;-142.75;95.80;77668.84;5009191;28;20034;-67
2021/11/19 11:09:55;;;;;;;13.18;2.10;;;;;;;-142.75;96.06;77696.41;5008349;28;20395;-68
2021/11/19 11:12:29;;;;;;;5.35;2.00;;;;;;;-142.75;96.53;77731.88;5008514;28;20113;-68
2021/11/19 11:15:25;;;;;;;6.97;2.05;;;;;;;-142.75;97.70;77763.38;4991309;28;20042;-67
2021/11/19 11:18:09;;;;;;;7.88;1.95;;;;;;;-142.75;99.80;77771.25;5008600;28;20037;-67
2021/11/19 11:20:38;;;;;;;10.88;2.20;;;;;;;-142.75;100.00;77806.69;4988876;28;20092;-67
2021/11/19 11:23:25;;;;;;;9.75;2.22;;;;;;;-142.75;100.00;77830.31;4989142;28;20038;-67